sensor_id;sensor_type;location;lat;lon;timestamp;temperature;humidity
36654;DHT22;22650;49.350;20.898;2023-04-24T00:00:39;5.30;99.90
36654;DHT22;22650;49.350;20.898;2023-04-24T00:03:12;5.20;99.90
36654;DHT22;22650;49.350;20.898;2023-04-24T00:05:46;5.20;99.90
36654;DHT22;22650;49.350;20.898;2023-04-24T00:08:21;5.20;99.90
36654;DHT22;22650;49.350;20.898;2023-04-24T00:10:56;5.10;99.90
36654;DHT22;22650;49.350;20.898;2023-04-24T00:13:29;5.10;99.90
36654;DHT22;22650;49.350;20.898;2023-04-24T00:16:03;5.10;99.90
36654;DHT22;22650;49.350;20.898;2023-04-24T00:18:37;5.00;99.90
36654;DHT22;22650;49.350;20.898;2023-04-24T00:21:11;5.00;99.90
36654;DHT22;22650;49.350;20.898;2023-04-24T00:23:46;5.00;99.90
36654;DHT22;22650;49.350;20.898;2023-04-24T00:26:19;4.90;99.90
36654;DHT22;22650;49.350;20.898;2023-04-24T00:28:53;4.90;99.90
36654;DHT22;22650;49.350;20.898;2023-04-24T00:31:26;4.90;99.90
36654;DHT22;22650;49.350;20.898;2023-04-24T00:34:00;4.80;99.90
36654;DHT22;22650;49.350;20.898;2023-04-24T00:36:34;4.80;99.90
36654;DHT22;22650;49.350;20.898;2023-04-24T00:39:09;4.80;99.90
36654;DHT22;22650;49.350;20.898;2023-04-24T00:41:42;4.80;99.90
36654;DHT22;22650;49.350;20.898;2023-04-24T00:44:17;4.70;99.90
36654;DHT22;22650;49.350;20.898;2023-04-24T00:46:51;4.70;99.90
36654;DHT22;22650;49.350;20.898;2023-04-24T00:49:26;4.60;99.90
36654;DHT22;22650;49.350;20.898;2023-04-24T00:52:00;4.60;99.90
36654;DHT22;22650;49.350;20.898;2023-04-24T00:54:35;4.60;99.90
36654;DHT22;22650;49.350;20.898;2023-04-24T00:57:09;4.60;99.90
36654;DHT22;22650;49.350;20.898;2023-04-24T00:59:43;4.50;99.90
36654;DHT22;22650;49.350;20.898;2023-04-24T01:02:17;4.50;99.90
36654;DHT22;22650;49.350;20.898;2023-04-24T01:04:52;4.50;99.90
36654;DHT22;22650;49.350;20.898;2023-04-24T01:07:25;4.50;99.90
36654;DHT22;22650;49.350;20.898;2023-04-24T01:10:00;4.40;99.90
36654;DHT22;22650;49.350;20.898;2023-04-24T01:12:34;4.40;99.90
36654;DHT22;22650;49.350;20.898;2023-04-24T01:15:09;4.40;99.90
36654;DHT22;22650;49.350;20.898;2023-04-24T01:17:43;4.40;99.90
36654;DHT22;22650;49.350;20.898;2023-04-24T01:20:19;4.40;99.90
36654;DHT22;22650;49.350;20.898;2023-04-24T01:22:54;4.40;99.90
36654;DHT22;22650;49.350;20.898;2023-04-24T01:25:28;4.30;99.90
36654;DHT22;22650;49.350;20.898;2023-04-24T01:28:02;4.30;99.90
36654;DHT22;22650;49.350;20.898;2023-04-24T01:30:36;4.20;99.90
36654;DHT22;22650;49.350;20.898;2023-04-24T01:33:10;4.20;99.90
36654;DHT22;22650;49.350;20.898;2023-04-24T01:35:43;4.20;99.90
36654;DHT22;22650;49.350;20.898;2023-04-24T01:38:18;4.10;99.90
36654;DHT22;22650;49.350;20.898;2023-04-24T01:40:52;4.20;99.90
36654;DHT22;22650;49.350;20.898;2023-04-24T01:43:26;4.10;99.90
36654;DHT22;22650;49.350;20.898;2023-04-24T01:46:02;4.10;99.90
36654;DHT22;22650;49.350;20.898;2023-04-24T01:48:40;4.10;99.90
36654;DHT22;22650;49.350;20.898;2023-04-24T01:51:14;4.00;99.90
36654;DHT22;22650;49.350;20.898;2023-04-24T01:53:49;4.00;99.90
36654;DHT22;22650;49.350;20.898;2023-04-24T01:56:23;4.00;99.90
36654;DHT22;22650;49.350;20.898;2023-04-24T01:58:56;3.90;99.90
36654;DHT22;22650;49.350;20.898;2023-04-24T02:01:33;3.90;99.90
36654;DHT22;22650;49.350;20.898;2023-04-24T02:04:07;3.90;99.90
36654;DHT22;22650;49.350;20.898;2023-04-24T02:06:41;3.80;99.90
36654;DHT22;22650;49.350;20.898;2023-04-24T02:09:16;3.80;99.90
36654;DHT22;22650;49.350;20.898;2023-04-24T02:11:49;3.80;99.90
36654;DHT22;22650;49.350;20.898;2023-04-24T02:14:23;3.70;99.90
36654;DHT22;22650;49.350;20.898;2023-04-24T02:16:57;3.70;99.90
36654;DHT22;22650;49.350;20.898;2023-04-24T02:19:30;3.70;99.90
36654;DHT22;22650;49.350;20.898;2023-04-24T02:22:04;3.60;99.90
36654;DHT22;22650;49.350;20.898;2023-04-24T02:24:40;3.60;99.90
36654;DHT22;22650;49.350;20.898;2023-04-24T02:27:14;3.60;99.90
36654;DHT22;22650;49.350;20.898;2023-04-24T02:29:47;3.50;99.90
36654;DHT22;22650;49.350;20.898;2023-04-24T02:32:21;3.50;99.90
36654;DHT22;22650;49.350;20.898;2023-04-24T02:34:54;3.50;99.90
36654;DHT22;22650;49.350;20.898;2023-04-24T02:37:28;3.40;99.90
36654;DHT22;22650;49.350;20.898;2023-04-24T02:40:04;3.40;99.90
36654;DHT22;22650;49.350;20.898;2023-04-24T02:42:38;3.40;99.90
36654;DHT22;22650;49.350;20.898;2023-04-24T02:45:11;3.30;99.90
36654;DHT22;22650;49.350;20.898;2023-04-24T02:47:45;3.30;99.90
36654;DHT22;22650;49.350;20.898;2023-04-24T02:50:18;3.30;99.90
36654;DHT22;22650;49.350;20.898;2023-04-24T02:52:52;3.20;99.90
36654;DHT22;22650;49.350;20.898;2023-04-24T02:55:27;3.20;99.90
36654;DHT22;22650;49.350;20.898;2023-04-24T02:58:00;3.20;99.90
36654;DHT22;22650;49.350;20.898;2023-04-24T03:00:34;3.20;99.90
36654;DHT22;22650;49.350;20.898;2023-04-24T03:03:07;3.10;99.90
36654;DHT22;22650;49.350;20.898;2023-04-24T03:05:41;3.10;99.90
36654;DHT22;22650;49.350;20.898;2023-04-24T03:08:15;3.10;99.90
36654;DHT22;22650;49.350;20.898;2023-04-24T03:10:50;3.00;99.90
36654;DHT22;22650;49.350;20.898;2023-04-24T03:13:23;3.00;99.90
36654;DHT22;22650;49.350;20.898;2023-04-24T03:15:57;3.00;99.90
36654;DHT22;22650;49.350;20.898;2023-04-24T03:18:32;3.00;99.90
36654;DHT22;22650;49.350;20.898;2023-04-24T03:21:06;3.00;99.90
36654;DHT22;22650;49.350;20.898;2023-04-24T03:23:40;2.90;99.90
36654;DHT22;22650;49.350;20.898;2023-04-24T03:26:16;2.90;99.90
36654;DHT22;22650;49.350;20.898;2023-04-24T03:29:02;2.90;99.90
36654;DHT22;22650;49.350;20.898;2023-04-24T03:31:36;2.80;99.90
36654;DHT22;22650;49.350;20.898;2023-04-24T03:34:09;2.80;99.90
36654;DHT22;22650;49.350;20.898;2023-04-24T03:36:43;2.80;99.90
36654;DHT22;22650;49.350;20.898;2023-04-24T03:39:19;2.80;99.90
36654;DHT22;22650;49.350;20.898;2023-04-24T03:41:59;2.80;99.90
36654;DHT22;22650;49.350;20.898;2023-04-24T03:44:44;2.80;99.90
36654;DHT22;22650;49.350;20.898;2023-04-24T03:47:18;2.80;99.90
36654;DHT22;22650;49.350;20.898;2023-04-24T03:49:53;2.80;99.90
36654;DHT22;22650;49.350;20.898;2023-04-24T03:52:28;2.80;99.90
36654;DHT22;22650;49.350;20.898;2023-04-24T03:55:01;2.70;99.90
36654;DHT22;22650;49.350;20.898;2023-04-24T03:57:42;2.70;99.90
36654;DHT22;22650;49.350;20.898;2023-04-24T04:00:23;2.70;99.90
36654;DHT22;22650;49.350;20.898;2023-04-24T04:03:15;2.70;99.90
36654;DHT22;22650;49.350;20.898;2023-04-24T04:05:49;2.70;99.90
36654;DHT22;22650;49.350;20.898;2023-04-24T04:08:23;2.70;99.90
36654;DHT22;22650;49.350;20.898;2023-04-24T04:10:57;2.70;99.90
36654;DHT22;22650;49.350;20.898;2023-04-24T04:13:32;2.70;99.90
36654;DHT22;22650;49.350;20.898;2023-04-24T04:16:05;2.70;99.90
36654;DHT22;22650;49.350;20.898;2023-04-24T04:18:39;2.80;99.90
36654;DHT22;22650;49.350;20.898;2023-04-24T04:21:13;2.80;99.90
36654;DHT22;22650;49.350;20.898;2023-04-24T04:23:47;2.80;99.90
36654;DHT22;22650;49.350;20.898;2023-04-24T04:26:29;2.80;99.90
36654;DHT22;22650;49.350;20.898;2023-04-24T04:29:10;2.80;99.90
36654;DHT22;22650;49.350;20.898;2023-04-24T04:31:47;2.80;99.90
36654;DHT22;22650;49.350;20.898;2023-04-24T04:34:21;2.80;99.90
36654;DHT22;22650;49.350;20.898;2023-04-24T04:36:55;2.80;99.90
36654;DHT22;22650;49.350;20.898;2023-04-24T04:39:42;2.80;99.90
36654;DHT22;22650;49.350;20.898;2023-04-24T04:42:25;2.80;99.90
36654;DHT22;22650;49.350;20.898;2023-04-24T04:45:00;2.90;99.90
36654;DHT22;22650;49.350;20.898;2023-04-24T04:47:45;2.90;99.90
36654;DHT22;22650;49.350;20.898;2023-04-24T04:50:18;2.90;99.90
36654;DHT22;22650;49.350;20.898;2023-04-24T04:52:55;3.00;99.90
36654;DHT22;22650;49.350;20.898;2023-04-24T04:55:36;3.00;99.90
36654;DHT22;22650;49.350;20.898;2023-04-24T04:58:18;3.00;99.90
36654;DHT22;22650;49.350;20.898;2023-04-24T05:00:57;3.10;99.90
36654;DHT22;22650;49.350;20.898;2023-04-24T05:03:36;3.10;99.90
36654;DHT22;22650;49.350;20.898;2023-04-24T05:06:13;3.20;99.90
36654;DHT22;22650;49.350;20.898;2023-04-24T05:08:48;3.20;99.90
36654;DHT22;22650;49.350;20.898;2023-04-24T05:11:34;3.30;99.90
36654;DHT22;22650;49.350;20.898;2023-04-24T05:14:08;3.30;99.90
36654;DHT22;22650;49.350;20.898;2023-04-24T05:16:45;3.40;99.90
36654;DHT22;22650;49.350;20.898;2023-04-24T05:19:21;3.40;99.90
36654;DHT22;22650;49.350;20.898;2023-04-24T05:21:55;3.50;99.90
36654;DHT22;22650;49.350;20.898;2023-04-24T05:24:28;3.50;99.90
36654;DHT22;22650;49.350;20.898;2023-04-24T05:27:21;3.60;99.90
36654;DHT22;22650;49.350;20.898;2023-04-24T05:29:54;3.70;99.90
36654;DHT22;22650;49.350;20.898;2023-04-24T05:32:30;3.80;99.90
36654;DHT22;22650;49.350;20.898;2023-04-24T05:35:04;3.90;99.90
36654;DHT22;22650;49.350;20.898;2023-04-24T05:37:38;4.00;99.90
36654;DHT22;22650;49.350;20.898;2023-04-24T05:40:13;4.10;99.90
36654;DHT22;22650;49.350;20.898;2023-04-24T05:42:47;4.30;99.90
36654;DHT22;22650;49.350;20.898;2023-04-24T05:45:20;4.40;99.90
36654;DHT22;22650;49.350;20.898;2023-04-24T05:47:55;4.50;99.90
36654;DHT22;22650;49.350;20.898;2023-04-24T05:50:29;4.60;99.90
36654;DHT22;22650;49.350;20.898;2023-04-24T05:53:02;4.70;99.90
36654;DHT22;22650;49.350;20.898;2023-04-24T05:55:39;4.90;99.90
36654;DHT22;22650;49.350;20.898;2023-04-24T05:58:12;5.00;99.90
36654;DHT22;22650;49.350;20.898;2023-04-24T06:00:46;5.20;99.90
36654;DHT22;22650;49.350;20.898;2023-04-24T06:03:21;5.30;99.90
36654;DHT22;22650;49.350;20.898;2023-04-24T06:05:55;5.50;99.90
36654;DHT22;22650;49.350;20.898;2023-04-24T06:08:29;5.70;99.90
36654;DHT22;22650;49.350;20.898;2023-04-24T06:11:03;5.80;99.90
36654;DHT22;22650;49.350;20.898;2023-04-24T06:13:37;6.00;99.90
36654;DHT22;22650;49.350;20.898;2023-04-24T06:16:30;6.20;99.90
36654;DHT22;22650;49.350;20.898;2023-04-24T06:19:11;6.40;99.90
36654;DHT22;22650;49.350;20.898;2023-04-24T06:21:45;6.70;99.90
36654;DHT22;22650;49.350;20.898;2023-04-24T06:24:19;6.90;99.90
36654;DHT22;22650;49.350;20.898;2023-04-24T06:26:52;7.10;99.90
36654;DHT22;22650;49.350;20.898;2023-04-24T06:29:26;7.40;99.90
36654;DHT22;22650;49.350;20.898;2023-04-24T06:32:00;7.70;99.90
36654;DHT22;22650;49.350;20.898;2023-04-24T06:34:35;8.00;99.90
36654;DHT22;22650;49.350;20.898;2023-04-24T06:37:08;8.30;99.90
36654;DHT22;22650;49.350;20.898;2023-04-24T06:39:42;8.70;99.90
36654;DHT22;22650;49.350;20.898;2023-04-24T06:42:16;9.00;99.90
36654;DHT22;22650;49.350;20.898;2023-04-24T06:44:49;9.40;99.90
36654;DHT22;22650;49.350;20.898;2023-04-24T06:47:23;9.80;99.90
36654;DHT22;22650;49.350;20.898;2023-04-24T06:49:58;10.20;99.90
36654;DHT22;22650;49.350;20.898;2023-04-24T06:52:31;10.70;99.90
36654;DHT22;22650;49.350;20.898;2023-04-24T06:55:07;11.10;99.90
36654;DHT22;22650;49.350;20.898;2023-04-24T06:57:40;11.60;99.90
36654;DHT22;22650;49.350;20.898;2023-04-24T07:00:14;12.10;99.90
36654;DHT22;22650;49.350;20.898;2023-04-24T07:02:48;12.60;99.90
36654;DHT22;22650;49.350;20.898;2023-04-24T07:05:23;13.10;99.90
36654;DHT22;22650;49.350;20.898;2023-04-24T07:07:56;13.70;99.90
36654;DHT22;22650;49.350;20.898;2023-04-24T07:10:30;14.20;99.90
36654;DHT22;22650;49.350;20.898;2023-04-24T07:13:06;14.70;99.90
36654;DHT22;22650;49.350;20.898;2023-04-24T07:15:40;15.20;99.90
36654;DHT22;22650;49.350;20.898;2023-04-24T07:18:14;15.70;99.90
36654;DHT22;22650;49.350;20.898;2023-04-24T07:20:48;16.20;99.90
36654;DHT22;22650;49.350;20.898;2023-04-24T07:23:23;16.70;99.90
36654;DHT22;22650;49.350;20.898;2023-04-24T07:25:56;17.20;99.90
36654;DHT22;22650;49.350;20.898;2023-04-24T07:28:30;17.60;99.90
36654;DHT22;22650;49.350;20.898;2023-04-24T07:31:04;18.00;97.20
36654;DHT22;22650;49.350;20.898;2023-04-24T07:33:37;18.40;83.20
36654;DHT22;22650;49.350;20.898;2023-04-24T07:36:13;18.60;84.30
36654;DHT22;22650;49.350;20.898;2023-04-24T07:38:49;18.70;81.40
36654;DHT22;22650;49.350;20.898;2023-04-24T07:41:22;19.00;77.30
36654;DHT22;22650;49.350;20.898;2023-04-24T07:43:56;19.20;77.00
36654;DHT22;22650;49.350;20.898;2023-04-24T07:46:30;19.30;74.20
36654;DHT22;22650;49.350;20.898;2023-04-24T07:49:04;19.50;72.20
36654;DHT22;22650;49.350;20.898;2023-04-24T07:51:46;19.70;72.30
36654;DHT22;22650;49.350;20.898;2023-04-24T07:54:20;19.70;68.70
36654;DHT22;22650;49.350;20.898;2023-04-24T07:56:54;19.70;67.30
36654;DHT22;22650;49.350;20.898;2023-04-24T07:59:27;19.90;68.30
36654;DHT22;22650;49.350;20.898;2023-04-24T08:02:01;20.10;66.80
36654;DHT22;22650;49.350;20.898;2023-04-24T08:04:35;20.10;65.80
36654;DHT22;22650;49.350;20.898;2023-04-24T08:07:10;20.30;65.10
36654;DHT22;22650;49.350;20.898;2023-04-24T08:09:45;20.40;64.90
36654;DHT22;22650;49.350;20.898;2023-04-24T08:12:18;20.60;67.90
36654;DHT22;22650;49.350;20.898;2023-04-24T08:14:52;20.70;65.40
36654;DHT22;22650;49.350;20.898;2023-04-24T08:17:25;20.80;65.00
36654;DHT22;22650;49.350;20.898;2023-04-24T08:19:59;20.90;64.40
36654;DHT22;22650;49.350;20.898;2023-04-24T08:22:36;21.00;64.90
36654;DHT22;22650;49.350;20.898;2023-04-24T08:25:10;21.10;63.90
36654;DHT22;22650;49.350;20.898;2023-04-24T08:27:44;21.30;62.80
36654;DHT22;22650;49.350;20.898;2023-04-24T08:30:18;21.30;62.40
36654;DHT22;22650;49.350;20.898;2023-04-24T08:32:52;21.40;62.30
36654;DHT22;22650;49.350;20.898;2023-04-24T08:35:26;21.40;59.70
36654;DHT22;22650;49.350;20.898;2023-04-24T08:38:01;21.50;60.40
36654;DHT22;22650;49.350;20.898;2023-04-24T08:40:35;21.60;58.90
36654;DHT22;22650;49.350;20.898;2023-04-24T08:43:11;21.50;58.60
36654;DHT22;22650;49.350;20.898;2023-04-24T08:45:45;21.40;58.20
36654;DHT22;22650;49.350;20.898;2023-04-24T08:48:19;21.40;59.20
36654;DHT22;22650;49.350;20.898;2023-04-24T08:51:02;21.70;58.30
36654;DHT22;22650;49.350;20.898;2023-04-24T08:53:42;21.70;58.40
36654;DHT22;22650;49.350;20.898;2023-04-24T08:56:16;21.70;58.90
36654;DHT22;22650;49.350;20.898;2023-04-24T08:58:51;21.70;56.90
36654;DHT22;22650;49.350;20.898;2023-04-24T09:01:25;21.80;57.80
36654;DHT22;22650;49.350;20.898;2023-04-24T09:04:02;22.00;57.70
36654;DHT22;22650;49.350;20.898;2023-04-24T09:06:37;22.00;57.10
36654;DHT22;22650;49.350;20.898;2023-04-24T09:09:12;22.00;57.80
36654;DHT22;22650;49.350;20.898;2023-04-24T09:11:46;21.80;57.40
36654;DHT22;22650;49.350;20.898;2023-04-24T09:14:20;21.70;56.60
36654;DHT22;22650;49.350;20.898;2023-04-24T09:16:55;21.50;56.50
36654;DHT22;22650;49.350;20.898;2023-04-24T09:19:28;21.60;57.50
36654;DHT22;22650;49.350;20.898;2023-04-24T09:22:05;21.80;58.70
36654;DHT22;22650;49.350;20.898;2023-04-24T09:24:40;21.80;57.30
36654;DHT22;22650;49.350;20.898;2023-04-24T09:27:14;21.90;57.30
36654;DHT22;22650;49.350;20.898;2023-04-24T09:29:56;21.80;56.50
36654;DHT22;22650;49.350;20.898;2023-04-24T09:32:29;21.80;56.40
36654;DHT22;22650;49.350;20.898;2023-04-24T09:35:08;21.80;59.10
36654;DHT22;22650;49.350;20.898;2023-04-24T09:37:43;22.00;58.30
36654;DHT22;22650;49.350;20.898;2023-04-24T09:40:21;22.20;58.00
36654;DHT22;22650;49.350;20.898;2023-04-24T09:42:56;22.20;57.00
36654;DHT22;22650;49.350;20.898;2023-04-24T09:45:35;22.30;56.80
36654;DHT22;22650;49.350;20.898;2023-04-24T09:48:10;21.80;56.50
36654;DHT22;22650;49.350;20.898;2023-04-24T09:50:46;21.70;57.50
36654;DHT22;22650;49.350;20.898;2023-04-24T09:53:24;21.40;56.60
36654;DHT22;22650;49.350;20.898;2023-04-24T09:56:07;21.20;57.90
36654;DHT22;22650;49.350;20.898;2023-04-24T09:58:41;21.00;58.60
36654;DHT22;22650;49.350;20.898;2023-04-24T10:01:15;20.70;58.80
36654;DHT22;22650;49.350;20.898;2023-04-24T10:03:48;20.50;58.70
36654;DHT22;22650;49.350;20.898;2023-04-24T10:06:22;20.50;59.10
36654;DHT22;22650;49.350;20.898;2023-04-24T10:08:55;20.60;60.40
36654;DHT22;22650;49.350;20.898;2023-04-24T10:11:31;20.70;58.50
36654;DHT22;22650;49.350;20.898;2023-04-24T10:14:05;20.90;59.50
36654;DHT22;22650;49.350;20.898;2023-04-24T10:16:40;21.20;59.90
36654;DHT22;22650;49.350;20.898;2023-04-24T10:19:14;21.40;57.80
36654;DHT22;22650;49.350;20.898;2023-04-24T10:21:48;21.50;58.90
36654;DHT22;22650;49.350;20.898;2023-04-24T10:24:22;21.80;58.80
36654;DHT22;22650;49.350;20.898;2023-04-24T10:26:58;21.90;59.70
36654;DHT22;22650;49.350;20.898;2023-04-24T10:29:35;21.80;58.10
36654;DHT22;22650;49.350;20.898;2023-04-24T10:32:09;21.50;58.00
36654;DHT22;22650;49.350;20.898;2023-04-24T10:34:43;21.50;59.50
36654;DHT22;22650;49.350;20.898;2023-04-24T10:37:17;21.40;59.50
36654;DHT22;22650;49.350;20.898;2023-04-24T10:39:50;21.10;59.40
36654;DHT22;22650;49.350;20.898;2023-04-24T10:42:28;20.80;59.30
36654;DHT22;22650;49.350;20.898;2023-04-24T10:45:05;20.70;61.10
36654;DHT22;22650;49.350;20.898;2023-04-24T10:47:42;20.50;60.60
36654;DHT22;22650;49.350;20.898;2023-04-24T10:50:16;20.30;60.50
36654;DHT22;22650;49.350;20.898;2023-04-24T10:52:50;20.30;61.10
36654;DHT22;22650;49.350;20.898;2023-04-24T10:55:42;20.20;62.20
36654;DHT22;22650;49.350;20.898;2023-04-24T10:58:21;20.10;62.00
36654;DHT22;22650;49.350;20.898;2023-04-24T11:00:56;20.00;61.40
36654;DHT22;22650;49.350;20.898;2023-04-24T11:03:32;19.90;62.10
36654;DHT22;22650;49.350;20.898;2023-04-24T11:06:07;19.80;61.80
36654;DHT22;22650;49.350;20.898;2023-04-24T11:08:43;19.50;61.90
36654;DHT22;22650;49.350;20.898;2023-04-24T11:11:18;19.30;62.00
36654;DHT22;22650;49.350;20.898;2023-04-24T11:14:07;19.10;62.10
36654;DHT22;22650;49.350;20.898;2023-04-24T11:16:44;18.90;62.90
36654;DHT22;22650;49.350;20.898;2023-04-24T11:19:21;18.70;64.30
36654;DHT22;22650;49.350;20.898;2023-04-24T11:21:59;18.60;64.70
36654;DHT22;22650;49.350;20.898;2023-04-24T11:24:39;18.50;64.20
36654;DHT22;22650;49.350;20.898;2023-04-24T11:27:22;18.40;65.00
36654;DHT22;22650;49.350;20.898;2023-04-24T11:30:03;18.40;66.20
36654;DHT22;22650;49.350;20.898;2023-04-24T11:32:40;18.20;66.70
36654;DHT22;22650;49.350;20.898;2023-04-24T11:35:15;18.20;67.70
36654;DHT22;22650;49.350;20.898;2023-04-24T11:37:50;18.20;67.70
36654;DHT22;22650;49.350;20.898;2023-04-24T11:40:44;18.10;67.70
36654;DHT22;22650;49.350;20.898;2023-04-24T11:43:19;18.00;67.40
36654;DHT22;22650;49.350;20.898;2023-04-24T11:45:59;18.00;67.90
36654;DHT22;22650;49.350;20.898;2023-04-24T11:48:37;18.00;69.70
36654;DHT22;22650;49.350;20.898;2023-04-24T11:51:12;17.90;68.50
36654;DHT22;22650;49.350;20.898;2023-04-24T11:53:46;17.80;67.70
36654;DHT22;22650;49.350;20.898;2023-04-24T11:56:23;17.90;68.50
36654;DHT22;22650;49.350;20.898;2023-04-24T11:58:57;17.80;68.80
36654;DHT22;22650;49.350;20.898;2023-04-24T12:01:42;17.70;68.30
36654;DHT22;22650;49.350;20.898;2023-04-24T12:04:18;17.70;69.40
36654;DHT22;22650;49.350;20.898;2023-04-24T12:07:01;17.60;68.80
36654;DHT22;22650;49.350;20.898;2023-04-24T12:09:43;17.60;70.00
36654;DHT22;22650;49.350;20.898;2023-04-24T12:12:18;17.50;70.10
36654;DHT22;22650;49.350;20.898;2023-04-24T12:14:54;17.50;72.30
36654;DHT22;22650;49.350;20.898;2023-04-24T12:17:31;17.30;73.00
36654;DHT22;22650;49.350;20.898;2023-04-24T12:20:06;17.20;73.30
36654;DHT22;22650;49.350;20.898;2023-04-24T12:22:45;17.20;75.70
36654;DHT22;22650;49.350;20.898;2023-04-24T12:25:20;17.10;77.70
36654;DHT22;22650;49.350;20.898;2023-04-24T12:27:55;17.10;77.20
36654;DHT22;22650;49.350;20.898;2023-04-24T12:30:44;17.10;77.30
36654;DHT22;22650;49.350;20.898;2023-04-24T12:33:20;17.00;80.30
36654;DHT22;22650;49.350;20.898;2023-04-24T12:35:54;16.90;81.90
36654;DHT22;22650;49.350;20.898;2023-04-24T12:38:29;16.80;80.80
36654;DHT22;22650;49.350;20.898;2023-04-24T12:41:04;16.70;82.70
36654;DHT22;22650;49.350;20.898;2023-04-24T12:43:38;16.70;83.00
36654;DHT22;22650;49.350;20.898;2023-04-24T12:46:12;16.70;83.10
36654;DHT22;22650;49.350;20.898;2023-04-24T12:48:50;16.70;87.40
36654;DHT22;22650;49.350;20.898;2023-04-24T12:51:24;16.70;83.80
36654;DHT22;22650;49.350;20.898;2023-04-24T12:53:57;16.70;89.70
36654;DHT22;22650;49.350;20.898;2023-04-24T12:56:31;16.70;87.90
36654;DHT22;22650;49.350;20.898;2023-04-24T12:59:05;16.70;90.30
36654;DHT22;22650;49.350;20.898;2023-04-24T13:01:38;16.70;91.10
36654;DHT22;22650;49.350;20.898;2023-04-24T13:04:13;16.70;90.60
36654;DHT22;22650;49.350;20.898;2023-04-24T13:06:47;16.70;91.70
36654;DHT22;22650;49.350;20.898;2023-04-24T13:09:21;16.80;92.70
36654;DHT22;22650;49.350;20.898;2023-04-24T13:11:55;16.70;93.60
36654;DHT22;22650;49.350;20.898;2023-04-24T13:14:29;16.70;95.00
36654;DHT22;22650;49.350;20.898;2023-04-24T13:17:03;16.70;97.20
36654;DHT22;22650;49.350;20.898;2023-04-24T13:19:39;16.70;96.70
36654;DHT22;22650;49.350;20.898;2023-04-24T13:22:13;16.60;95.70
36654;DHT22;22650;49.350;20.898;2023-04-24T13:24:47;16.70;96.40
36654;DHT22;22650;49.350;20.898;2023-04-24T13:27:21;16.50;97.10
36654;DHT22;22650;49.350;20.898;2023-04-24T13:29:55;16.40;99.90
36654;DHT22;22650;49.350;20.898;2023-04-24T13:32:28;16.40;99.90
36654;DHT22;22650;49.350;20.898;2023-04-24T13:35:04;16.40;99.90
36654;DHT22;22650;49.350;20.898;2023-04-24T13:37:37;16.20;99.90
36654;DHT22;22650;49.350;20.898;2023-04-24T13:40:11;16.10;99.90
36654;DHT22;22650;49.350;20.898;2023-04-24T13:42:45;16.10;99.90
36654;DHT22;22650;49.350;20.898;2023-04-24T13:45:18;15.90;99.90
36654;DHT22;22650;49.350;20.898;2023-04-24T13:47:56;15.80;99.90
36654;DHT22;22650;49.350;20.898;2023-04-24T13:50:31;15.80;99.90
36654;DHT22;22650;49.350;20.898;2023-04-24T13:53:05;15.70;99.90
36654;DHT22;22650;49.350;20.898;2023-04-24T13:55:39;15.70;99.90
36654;DHT22;22650;49.350;20.898;2023-04-24T13:58:12;15.60;99.90
36654;DHT22;22650;49.350;20.898;2023-04-24T14:00:46;15.60;99.90
36654;DHT22;22650;49.350;20.898;2023-04-24T14:03:19;15.50;99.90
36654;DHT22;22650;49.350;20.898;2023-04-24T14:05:55;15.50;99.90
36654;DHT22;22650;49.350;20.898;2023-04-24T14:08:28;15.50;99.90
36654;DHT22;22650;49.350;20.898;2023-04-24T14:11:02;15.40;99.90
36654;DHT22;22650;49.350;20.898;2023-04-24T14:13:37;15.40;99.90
36654;DHT22;22650;49.350;20.898;2023-04-24T14:16:11;15.20;99.90
36654;DHT22;22650;49.350;20.898;2023-04-24T14:18:45;15.20;99.90
36654;DHT22;22650;49.350;20.898;2023-04-24T14:21:20;15.10;99.90
36654;DHT22;22650;49.350;20.898;2023-04-24T14:23:54;15.00;99.90
36654;DHT22;22650;49.350;20.898;2023-04-24T14:26:29;14.90;99.90
36654;DHT22;22650;49.350;20.898;2023-04-24T14:29:02;14.80;99.90
36654;DHT22;22650;49.350;20.898;2023-04-24T14:31:46;14.60;99.90
36654;DHT22;22650;49.350;20.898;2023-04-24T14:34:19;14.50;99.90
36654;DHT22;22650;49.350;20.898;2023-04-24T14:36:54;14.40;99.90
36654;DHT22;22650;49.350;20.898;2023-04-24T14:39:28;14.30;99.90
36654;DHT22;22650;49.350;20.898;2023-04-24T14:42:02;14.30;99.90
36654;DHT22;22650;49.350;20.898;2023-04-24T14:44:35;14.20;99.90
36654;DHT22;22650;49.350;20.898;2023-04-24T14:47:09;14.10;99.90
36654;DHT22;22650;49.350;20.898;2023-04-24T14:49:43;14.10;99.90
36654;DHT22;22650;49.350;20.898;2023-04-24T14:52:20;13.90;99.90
36654;DHT22;22650;49.350;20.898;2023-04-24T14:54:54;13.80;99.90
36654;DHT22;22650;49.350;20.898;2023-04-24T14:57:28;13.80;99.90
36654;DHT22;22650;49.350;20.898;2023-04-24T15:00:02;13.70;99.90
36654;DHT22;22650;49.350;20.898;2023-04-24T15:02:38;13.70;99.90
36654;DHT22;22650;49.350;20.898;2023-04-24T15:05:14;13.60;99.90
36654;DHT22;22650;49.350;20.898;2023-04-24T15:07:50;13.60;99.90
36654;DHT22;22650;49.350;20.898;2023-04-24T15:10:23;13.60;99.90
36654;DHT22;22650;49.350;20.898;2023-04-24T15:12:57;13.60;99.90
36654;DHT22;22650;49.350;20.898;2023-04-24T15:15:31;13.50;99.90
36654;DHT22;22650;49.350;20.898;2023-04-24T15:18:05;13.50;99.90
36654;DHT22;22650;49.350;20.898;2023-04-24T15:20:40;13.50;99.90
36654;DHT22;22650;49.350;20.898;2023-04-24T15:23:15;13.50;99.90
36654;DHT22;22650;49.350;20.898;2023-04-24T15:25:49;13.40;99.90
36654;DHT22;22650;49.350;20.898;2023-04-24T15:28:22;13.40;99.90
36654;DHT22;22650;49.350;20.898;2023-04-24T15:30:56;13.30;99.90
36654;DHT22;22650;49.350;20.898;2023-04-24T15:33:30;13.30;99.90
36654;DHT22;22650;49.350;20.898;2023-04-24T15:36:03;13.30;99.90
36654;DHT22;22650;49.350;20.898;2023-04-24T15:38:38;13.30;99.90
36654;DHT22;22650;49.350;20.898;2023-04-24T15:41:12;13.30;99.90
36654;DHT22;22650;49.350;20.898;2023-04-24T15:43:46;13.30;99.90
36654;DHT22;22650;49.350;20.898;2023-04-24T15:46:20;13.30;99.90
36654;DHT22;22650;49.350;20.898;2023-04-24T15:48:54;13.30;99.90
36654;DHT22;22650;49.350;20.898;2023-04-24T15:51:28;13.20;99.90
36654;DHT22;22650;49.350;20.898;2023-04-24T15:54:04;13.10;99.90
36654;DHT22;22650;49.350;20.898;2023-04-24T15:56:38;13.10;99.90
36654;DHT22;22650;49.350;20.898;2023-04-24T15:59:11;13.00;99.90
36654;DHT22;22650;49.350;20.898;2023-04-24T16:01:45;12.90;99.90
36654;DHT22;22650;49.350;20.898;2023-04-24T16:04:19;12.90;99.90
36654;DHT22;22650;49.350;20.898;2023-04-24T16:06:53;12.90;99.90
36654;DHT22;22650;49.350;20.898;2023-04-24T16:09:30;12.90;99.90
36654;DHT22;22650;49.350;20.898;2023-04-24T16:12:03;12.90;99.90